createdAt,value
2023-05-06T00:00:13.464Z,100634.28
2023-05-06T00:00:51.480Z,100636.16
2023-05-06T00:01:24.445Z,100634.81
2023-05-06T00:01:56.731Z,100636.94
2023-05-06T00:02:29.859Z,100645.53
2023-05-06T00:03:04.810Z,100642.28
2023-05-06T00:03:37.235Z,100639.88
2023-05-06T00:04:09.570Z,100638.22
2023-05-06T00:04:47.141Z,100641.16
2023-05-06T00:05:19.977Z,100639.25
2023-05-06T00:05:52.663Z,100646.78
2023-05-06T00:06:27.667Z,100649.69
2023-05-06T00:06:59.811Z,100644.81
2023-05-06T00:07:32.002Z,100639.94
2023-05-06T00:08:07.571Z,100650.16
2023-05-06T00:08:39.725Z,100635.56
2023-05-06T00:09:11.933Z,100637.69
2023-05-06T00:09:47.072Z,100640.38
2023-05-06T00:10:19.329Z,100639.03
2023-05-06T00:10:51.563Z,100640.66
2023-05-06T00:11:23.785Z,100641.72
2023-05-06T00:11:58.594Z,100636.56
2023-05-06T00:12:30.849Z,100634.91
2023-05-06T00:13:03.212Z,100646.19
2023-05-06T00:13:38.191Z,100645.63
2023-05-06T00:14:10.381Z,100647.75
2023-05-06T00:14:42.648Z,100647.69
2023-05-06T00:15:17.480Z,100653.59
2023-05-06T00:15:49.637Z,100649.53
2023-05-06T00:16:21.884Z,100648.97
2023-05-06T00:16:56.691Z,100658.38
2023-05-06T00:17:28.862Z,100646.22
2023-05-06T00:18:01.693Z,100662.38
2023-05-06T00:18:36.600Z,100658.03
2023-05-06T00:19:08.805Z,100657.81
2023-05-06T00:19:44.626Z,100664.25
2023-05-06T00:20:19.483Z,100666.41
2023-05-06T00:20:51.705Z,100666.41
2023-05-06T00:21:23.878Z,100670.38
2023-05-06T00:21:58.690Z,100663.38
2023-05-06T00:22:30.930Z,100667.97
2023-05-06T00:23:03.089Z,100672.25
2023-05-06T00:23:37.818Z,100673.06
2023-05-06T00:24:09.981Z,100664.19
2023-05-06T00:24:42.389Z,100663.38
2023-05-06T00:25:17.261Z,100668.50
2023-05-06T00:25:49.519Z,100663.13
2023-05-06T00:26:21.795Z,100662.31
2023-05-06T00:26:56.917Z,100657.75
2023-05-06T00:27:29.126Z,100660.44
2023-05-06T00:28:01.515Z,100657.75
2023-05-06T00:28:36.283Z,100658.78
2023-05-06T00:29:08.412Z,100663.13
2023-05-06T00:29:40.539Z,100662.06
2023-05-06T00:30:13.400Z,100664.75
2023-05-06T00:30:48.188Z,100663.13
2023-05-06T00:31:20.477Z,100666.06
2023-05-06T00:31:52.785Z,100659.88
2023-05-06T00:32:27.896Z,100664.19
2023-05-06T00:33:00.233Z,100665.81
2023-05-06T00:33:32.413Z,100673.66
2023-05-06T00:34:07.132Z,100665.31
2023-05-06T00:34:39.274Z,100665.88
2023-05-06T00:35:14.071Z,100666.69
2023-05-06T00:35:48.955Z,100664.81
2023-05-06T00:36:21.231Z,100671.03
2023-05-06T00:36:53.457Z,100670.22
2023-05-06T00:37:28.736Z,100658.63
2023-05-06T00:38:08.110Z,100673.13
2023-05-06T00:38:40.897Z,100673.38
2023-05-06T00:39:16.488Z,100668.81
2023-05-06T00:39:48.694Z,100670.69
2023-05-06T00:40:20.852Z,100664.25
2023-05-06T00:40:55.669Z,100663.19
2023-05-06T00:41:31.972Z,100669.41
2023-05-06T00:42:04.350Z,100670.69
2023-05-06T00:42:39.309Z,100670.16
2023-05-06T00:43:12.357Z,100671.19
2023-05-06T00:43:44.514Z,100678.47
2023-05-06T00:44:19.327Z,100681.97
2023-05-06T00:44:51.747Z,100672.78
2023-05-06T00:45:25.045Z,100668.44
2023-05-06T00:45:59.997Z,100678.66
2023-05-06T00:46:32.194Z,100674.34
2023-05-06T00:47:05.207Z,100677.03
2023-05-06T00:47:40.261Z,100671.66
2023-05-06T00:48:12.719Z,100670.00
2023-05-06T00:48:45.214Z,100670.84
2023-05-06T00:49:19.990Z,100679.72
2023-05-06T00:49:52.396Z,100685.13
2023-05-06T00:50:28.450Z,100675.66
2023-05-06T00:51:03.278Z,100675.91
2023-05-06T00:51:36.095Z,100689.38
2023-05-06T00:52:08.606Z,100688.56
2023-05-06T00:52:43.534Z,100683.16
2023-05-06T00:53:15.909Z,100684.81
2023-05-06T00:53:48.528Z,100691.00
2023-05-06T00:54:23.695Z,100687.50
2023-05-06T00:54:56.738Z,100686.91
2023-05-06T00:55:29.148Z,100688.56
2023-05-06T00:56:04.115Z,100684.00
2023-05-06T00:56:36.305Z,100686.91
2023-05-06T00:57:08.609Z,100692.31
2023-05-06T00:57:43.521Z,100684.50
2023-05-06T00:58:15.820Z,100692.00
2023-05-06T00:58:48.659Z,100689.53
2023-05-06T00:59:23.423Z,100693.06
2023-05-06T00:59:55.800Z,100691.41
2023-05-06T01:00:28.009Z,100694.94
2023-05-06T01:01:03.392Z,100696.56
2023-05-06T01:01:35.801Z,100688.47
2023-05-06T01:02:08.904Z,100690.13
2023-05-06T01:02:47.176Z,100699.00
2023-05-06T01:03:23.024Z,100696.56
2023-05-06T01:03:58.806Z,100694.09
2023-05-06T01:04:31.376Z,100699.50
2023-05-06T01:05:07.064Z,100696.81
2023-05-06T01:05:51.489Z,100701.63
2023-05-06T01:06:30.053Z,100700.00
2023-05-06T01:07:26.594Z,100692.44
2023-05-06T01:08:04.869Z,100686.00
2023-05-06T01:08:44.810Z,100683.03
2023-05-06T01:09:25.534Z,100686.78
2023-05-06T01:10:05.244Z,100691.38
2023-05-06T01:10:46.384Z,100684.34
2023-05-06T01:11:30.837Z,100686.22
2023-05-06T01:12:09.999Z,100678.97
2023-05-06T01:12:50.820Z,100682.22
2023-05-06T01:13:37.399Z,100684.91
2023-05-06T01:14:16.770Z,100685.72
2023-05-06T01:15:00.195Z,100687.59
2023-05-06T01:15:40.210Z,100688.41
2023-05-06T01:16:14.960Z,100688.41
2023-05-06T01:16:52.976Z,100675.53
2023-05-06T01:17:30.940Z,100687.13
2023-05-06T01:18:09.507Z,100684.16
2023-05-06T01:18:43.982Z,100689.81
2023-05-06T01:19:32.083Z,100686.03
2023-05-06T01:20:06.482Z,100687.13
2023-05-06T01:20:40.360Z,100688.72
2023-05-06T01:21:18.682Z,100684.97
2023-05-06T01:21:54.971Z,100684.44
2023-05-06T01:22:29.031Z,100687.13
2023-05-06T01:23:05.150Z,100688.72
2023-05-06T01:23:58.589Z,100690.28
2023-05-06T01:24:38.546Z,100687.88
2023-05-06T01:25:22.109Z,100688.91
2023-05-06T01:25:54.300Z,100692.91
2023-05-06T01:26:27.556Z,100698.88
2023-05-06T01:26:59.732Z,100698.06
2023-05-06T01:27:34.662Z,100705.06
2023-05-06T01:28:11.794Z,100705.06
2023-05-06T01:28:43.934Z,100709.63
2023-05-06T01:29:18.778Z,100706.13
2023-05-06T01:29:51.145Z,100705.06
2023-05-06T01:30:28.143Z,100703.19
2023-05-06T01:31:08.216Z,100703.19
2023-05-06T01:31:46.125Z,100700.19
2023-05-06T01:32:34.052Z,100702.31
2023-05-06T01:33:15.049Z,100700.13
2023-05-06T01:33:54.660Z,100702.22
2023-05-06T01:34:36.220Z,100710.81
2023-05-06T01:35:19.921Z,100712.09
2023-05-06T01:36:02.037Z,100711.03
2023-05-06T01:36:41.454Z,100719.13
2023-05-06T01:37:24.830Z,100711.88
2023-05-06T01:38:06.380Z,100716.19
2023-05-06T01:38:45.981Z,100719.44
2023-05-06T01:39:28.203Z,100725.09
2023-05-06T01:40:03.420Z,100727.78
2023-05-06T01:40:38.638Z,100726.72
2023-05-06T01:41:18.342Z,100730.78
2023-05-06T01:41:53.689Z,100719.19
2023-05-06T01:42:27.571Z,100722.72
2023-05-06T01:43:05.178Z,100723.28
2023-05-06T01:43:41.910Z,100720.31
2023-05-06T01:44:15.867Z,100724.66
2023-05-06T01:44:50.164Z,100720.09
2023-05-06T01:45:28.543Z,100728.16
2023-05-06T01:46:01.732Z,100724.06
2023-05-06T01:46:36.425Z,100724.88
2023-05-06T01:47:13.090Z,100725.16
2023-05-06T01:47:46.774Z,100723.53
2023-05-06T01:48:21.197Z,100727.50
2023-05-06T01:48:58.080Z,100725.09
2023-05-06T01:49:30.777Z,100725.56
2023-05-06T01:50:03.723Z,100731.75
2023-05-06T01:50:39.577Z,100730.38
2023-05-06T01:51:11.798Z,100719.31
2023-05-06T01:51:48.218Z,100730.31
2023-05-06T01:52:24.338Z,100720.88
2023-05-06T01:52:58.803Z,100724.84
2023-05-06T01:53:32.078Z,100728.59
2023-05-06T01:54:07.964Z,100724.75
2023-05-06T01:54:42.713Z,100726.91
2023-05-06T01:55:15.158Z,100725.50
2023-05-06T01:55:49.967Z,100724.69
2023-05-06T01:56:22.485Z,100722.50
2023-05-06T01:56:54.656Z,100729.75
2023-05-06T01:57:27.666Z,100721.94
2023-05-06T01:58:02.484Z,100727.56
2023-05-06T01:58:34.657Z,100728.63
2023-05-06T01:59:06.926Z,100727.78
2023-05-06T01:59:41.786Z,100724.53
2023-05-06T02:00:14.863Z,100723.97
2023-05-06T02:00:47.028Z,100724.78
2023-05-06T02:01:22.119Z,100722.91
2023-05-06T02:01:54.401Z,100722.09
2023-05-06T02:02:27.368Z,100726.66
2023-05-06T02:03:02.224Z,100725.84
2023-05-06T02:03:34.636Z,100726.09
2023-05-06T02:04:07.244Z,100720.72
2023-05-06T02:04:42.390Z,100722.59
2023-05-06T02:05:14.736Z,100721.78
2023-05-06T02:05:51.156Z,100722.00
2023-05-06T02:06:25.996Z,100717.69
2023-05-06T02:06:58.615Z,100723.06
2023-05-06T02:07:30.808Z,100717.94
2023-05-06T02:08:05.622Z,100715.25
2023-05-06T02:08:39.282Z,100724.38
2023-05-06T02:09:11.644Z,100722.75
2023-05-06T02:09:52.941Z,100730.25
2023-05-06T02:10:25.191Z,100726.97
2023-05-06T02:11:03.532Z,100729.34
2023-05-06T02:11:39.074Z,100732.84
2023-05-06T02:12:12.809Z,100737.66
2023-05-06T02:12:45.004Z,100732.28
2023-05-06T02:13:22.080Z,100736.00
2023-05-06T02:13:55.375Z,100732.28
2023-05-06T02:14:27.540Z,100741.47
2023-05-06T02:15:00.384Z,100744.97
2023-05-06T02:15:35.099Z,100743.69
2023-05-06T02:16:09.050Z,100745.31
2023-05-06T02:16:41.733Z,100747.75
2023-05-06T02:17:16.573Z,100748.09
2023-05-06T02:17:49.457Z,100740.00
2023-05-06T02:18:21.830Z,100739.56
2023-05-06T02:18:57.091Z,100743.03
2023-05-06T02:19:29.487Z,100739.28
2023-05-06T02:20:02.559Z,100740.91
2023-05-06T02:20:37.838Z,100739.06
2023-05-06T02:21:10.748Z,100743.38
2023-05-06T02:21:42.924Z,100742.28
2023-05-06T02:22:17.680Z,100747.44
2023-05-06T02:22:50.261Z,100743.69
2023-05-06T02:23:22.496Z,100747.22
2023-05-06T02:23:57.276Z,100749.91
2023-05-06T02:24:30.306Z,100747.22
2023-05-06T02:25:06.064Z,100748.25
2023-05-06T02:25:40.877Z,100752.00
2023-05-06T02:26:13.151Z,100746.63
2023-05-06T02:26:45.277Z,100754.94
2023-05-06T02:27:20.172Z,100750.63
2023-05-06T02:27:52.319Z,100756.47
2023-05-06T02:28:24.602Z,100758.09
2023-05-06T02:28:59.519Z,100762.44
2023-05-06T02:29:31.694Z,100759.97
2023-05-06T02:30:04.231Z,100764.31
2023-05-06T02:30:38.974Z,100763.25
2023-05-06T02:31:13.673Z,100757.88
2023-05-06T02:31:46.977Z,100748.16
2023-05-06T02:32:24.105Z,100758.09
2023-05-06T02:32:56.353Z,100753.00
2023-05-06T02:33:28.591Z,100758.38
2023-05-06T02:34:03.379Z,100753.78
2023-05-06T02:34:35.616Z,100754.88
2023-05-06T02:35:09.232Z,100755.69
2023-05-06T02:35:44.171Z,100753.00
2023-05-06T02:36:16.370Z,100746.78
2023-05-06T02:36:48.541Z,100758.09
2023-05-06T02:37:23.466Z,100750.84
2023-05-06T02:37:56.322Z,100759.75
2023-05-06T02:38:28.480Z,100750.03
2023-05-06T02:39:03.214Z,100756.25
2023-05-06T02:39:35.467Z,100760.81
2023-05-06T02:40:11.400Z,100746.53
2023-05-06T02:40:46.219Z,100753.00
2023-05-06T02:41:18.677Z,100743.03
2023-05-06T02:41:53.441Z,100743.84
2023-05-06T02:42:25.668Z,100746.53
2023-05-06T02:42:57.877Z,100746.28
2023-05-06T02:43:32.685Z,100740.91
2023-05-06T02:44:05.483Z,100739.88
2023-05-06T02:44:37.698Z,100746.88
2023-05-06T02:45:13.454Z,100741.50
2023-05-06T02:45:45.703Z,100740.69
2023-05-06T02:46:17.974Z,100736.91
2023-05-06T02:46:51.197Z,100739.59
2023-05-06T02:47:26.243Z,100738.81
2023-05-06T02:47:58.479Z,100740.69
2023-05-06T02:48:30.871Z,100747.66
2023-05-06T02:49:05.734Z,100739.38
2023-05-06T02:49:37.903Z,100739.59
2023-05-06T02:50:10.440Z,100740.19
2023-05-06T02:50:45.158Z,100741.00
2023-05-06T02:51:17.350Z,100740.41
2023-05-06T02:51:49.498Z,100742.28
2023-05-06T02:52:24.365Z,100740.41
2023-05-06T02:52:56.597Z,100746.06
2023-05-06T02:53:28.769Z,100738.22
2023-05-06T02:54:03.605Z,100741.97
2023-05-06T02:54:35.782Z,100749.50
2023-05-06T02:55:11.868Z,100752.41
2023-05-06T02:55:46.918Z,100759.09
2023-05-06T02:56:19.331Z,100758.53
2023-05-06T02:56:51.922Z,100764.94
2023-05-06T02:57:27.073Z,100760.06
2023-05-06T02:57:59.218Z,100758.69
2023-05-06T02:58:31.388Z,100767.00
2023-05-06T02:59:06.440Z,100767.81
2023-05-06T02:59:38.707Z,100771.78
2023-05-06T03:00:13.041Z,100770.97
2023-05-06T03:00:47.901Z,100772.88
2023-05-06T03:01:20.104Z,100773.09
2023-05-06T03:01:52.306Z,100773.91
2023-05-06T03:02:27.348Z,100767.47
2023-05-06T03:02:59.623Z,100767.72
2023-05-06T03:03:31.862Z,100776.84
2023-05-06T03:04:07.327Z,100780.34
2023-05-06T03:04:39.603Z,100773.59
2023-05-06T03:05:12.424Z,100773.59
2023-05-06T03:05:47.492Z,100770.09
2023-05-06T03:06:19.667Z,100773.19
2023-05-06T03:06:52.214Z,100775.34
2023-05-06T03:07:27.028Z,100780.72
2023-05-06T03:07:59.366Z,100781.19
2023-05-06T03:08:31.659Z,100777.94
2023-05-06T03:09:06.886Z,100782.47
2023-05-06T03:09:39.636Z,100776.28
2023-05-06T03:10:14.488Z,100787.38
2023-05-06T03:10:50.484Z,100780.84
2023-05-06T03:11:24.683Z,100786.47
2023-05-06T03:11:57.230Z,100780.03
2023-05-06T03:12:32.107Z,100786.22
2023-05-06T03:13:04.321Z,100786.47
2023-05-06T03:13:36.541Z,100781.66
2023-05-06T03:14:11.280Z,100784.94
2023-05-06T03:14:43.414Z,100784.69
2023-05-06T03:15:16.537Z,100790.88
2023-05-06T03:15:54.944Z,100789.81
2023-05-06T03:16:27.803Z,100792.75
2023-05-06T03:17:03.706Z,100782.00
2023-05-06T03:17:41.514Z,100796.84
2023-05-06T03:18:13.747Z,100793.56
2023-05-06T03:18:46.142Z,100786.56
2023-05-06T03:19:21.176Z,100798.13
2023-05-06T03:19:53.531Z,100791.38
2023-05-06T03:20:28.959Z,100798.59
2023-05-06T03:21:05.405Z,100797.22
2023-05-06T03:21:39.955Z,100797.47
2023-05-06T03:22:12.243Z,100799.66
2023-05-06T03:22:50.407Z,100796.97
2023-05-06T03:23:23.237Z,100807.72
2023-05-06T03:23:55.385Z,100813.47
2023-05-06T03:24:32.622Z,100805.41
2023-05-06T03:25:06.226Z,100804.31
2023-05-06T03:25:42.486Z,100806.53
2023-05-06T03:26:17.388Z,100813.31
2023-05-06T03:26:50.935Z,100807.94
2023-05-06T03:27:23.225Z,100805.84
2023-05-06T03:28:01.610Z,100806.41
2023-05-06T03:28:35.507Z,100815.06
2023-05-06T03:29:08.949Z,100811.06
2023-05-06T03:29:41.649Z,100810.56
2023-05-06T03:30:17.957Z,100811.16
2023-05-06T03:30:51.416Z,100809.06
2023-05-06T03:31:23.649Z,100805.28
2023-05-06T03:31:59.461Z,100798.84
2023-05-06T03:32:31.983Z,100807.16
2023-05-06T03:33:05.029Z,100811.25
2023-05-06T03:33:41.277Z,100809.38
2023-05-06T03:34:15.023Z,100808.31
2023-05-06T03:34:47.234Z,100807.00
2023-05-06T03:35:26.419Z,100817.78
2023-05-06T03:36:02.285Z,100815.09
2023-05-06T03:36:37.222Z,100809.22
2023-05-06T03:37:10.006Z,100816.00
2023-05-06T03:37:43.115Z,100818.19
2023-05-06T03:38:18.336Z,100814.19
2023-05-06T03:38:57.749Z,100819.31
2023-05-06T03:39:29.931Z,100818.84
2023-05-06T03:40:07.690Z,100829.94
2023-05-06T03:40:42.710Z,100831.56
2023-05-06T03:41:15.113Z,100821.88
2023-05-06T03:41:49.891Z,100811.13
2023-05-06T03:42:23.185Z,100821.06
2023-05-06T03:42:55.563Z,100820.25
2023-05-06T03:43:31.646Z,100832.63
2023-05-06T03:44:06.283Z,100832.28
2023-05-06T03:44:38.538Z,100826.13
2023-05-06T03:45:13.755Z,100823.06
2023-05-06T03:45:46.803Z,100825.44
2023-05-06T03:46:19.266Z,100824.63
2023-05-06T03:46:54.376Z,100823.81
2023-05-06T03:47:26.865Z,100824.63
2023-05-06T03:47:59.253Z,100826.25
2023-05-06T03:48:34.531Z,100814.91
2023-05-06T03:49:06.685Z,100824.88
2023-05-06T03:49:39.052Z,100823.47
2023-05-06T03:50:11.538Z,100823.47
2023-05-06T03:50:47.492Z,100821.03
2023-05-06T03:51:20.550Z,100828.28
2023-05-06T03:51:53.771Z,100829.91
2023-05-06T03:52:30.258Z,100837.97
2023-05-06T03:53:03.522Z,100835.88
2023-05-06T03:53:38.551Z,100834.00
2023-05-06T03:54:13.321Z,100833.50
2023-05-06T03:54:45.532Z,100837.84
2023-05-06T03:55:18.495Z,100837.59
2023-05-06T03:55:53.496Z,100838.16
2023-05-06T03:56:28.588Z,100832.78
2023-05-06T03:57:02.702Z,100837.59
2023-05-06T03:57:35.854Z,100830.81
2023-05-06T03:58:11.580Z,100831.06
2023-05-06T03:58:44.930Z,100830.72
2023-05-06T03:59:17.760Z,100832.59
2023-05-06T03:59:53.162Z,100828.28
2023-05-06T04:00:26.205Z,100830.41
2023-05-06T04:01:01.164Z,100827.94
2023-05-06T04:01:36.574Z,100830.63
2023-05-06T04:02:09.088Z,100820.94
2023-05-06T04:02:42.895Z,100824.47
2023-05-06T04:03:21.213Z,100827.63
2023-05-06T04:03:55.998Z,100827.88
2023-05-06T04:04:30.065Z,100829.97
2023-05-06T04:05:05.009Z,100832.66
2023-05-06T04:05:37.282Z,100829.66
2023-05-06T04:06:09.964Z,100832.56
2023-05-06T04:06:44.982Z,100832.25
2023-05-06T04:07:17.156Z,100830.59
2023-05-06T04:07:49.645Z,100823.34
2023-05-06T04:08:21.902Z,100821.72
2023-05-06T04:08:56.893Z,100825.22
2023-05-06T04:09:29.197Z,100824.41
2023-05-06T04:10:01.434Z,100838.66
2023-05-06T04:10:40.213Z,100824.41
2023-05-06T04:11:21.277Z,100838.81
2023-05-06T04:11:54.299Z,100840.66
2023-05-06T04:12:30.017Z,100833.41
2023-05-06T04:13:02.517Z,100843.34
2023-05-06T04:13:42.938Z,100844.41
2023-05-06T04:14:22.501Z,100840.34
2023-05-06T04:14:54.697Z,100841.13
2023-05-06T04:15:26.831Z,100842.53
2023-05-06T04:16:01.772Z,100835.28
2023-05-06T04:16:41.566Z,100848.97
2023-05-06T04:17:13.766Z,100837.16
2023-05-06T04:17:49.579Z,100847.91
2023-05-06T04:18:21.729Z,100846.03
2023-05-06T04:19:06.253Z,100842.53
2023-05-06T04:19:43.393Z,100843.34
2023-05-06T04:20:16.374Z,100842.53
2023-05-06T04:20:48.786Z,100847.66
2023-05-06T04:21:23.888Z,100842.28
2023-05-06T04:22:02.605Z,100848.47
2023-05-06T04:22:35.013Z,100837.53
2023-05-06T04:23:10.031Z,100842.66
2023-05-06T04:23:42.899Z,100847.78
2023-05-06T04:24:17.031Z,100840.53
2023-05-06T04:24:52.125Z,100833.88
2023-05-06T04:25:24.717Z,100841.13
2023-05-06T04:25:58.122Z,100847.88
2023-05-06T04:26:36.814Z,100847.44
2023-05-06T04:27:09.740Z,100845.53
2023-05-06T04:27:42.679Z,100849.84
2023-05-06T04:28:16.626Z,100847.97
2023-05-06T04:28:53.371Z,100847.44
2023-05-06T04:29:26.471Z,100842.50
2023-05-06T04:30:08.710Z,100851.06
2023-05-06T04:30:41.855Z,100849.19
2023-05-06T04:31:14.894Z,100852.69
2023-05-06T04:31:56.117Z,100852.94
2023-05-06T04:32:30.028Z,100856.44
2023-05-06T04:33:02.937Z,100852.69
2023-05-06T04:33:38.961Z,100855.38
2023-05-06T04:34:16.801Z,100850.00
2023-05-06T04:34:49.868Z,100852.44
2023-05-06T04:35:24.704Z,100850.56
2023-05-06T04:36:01.099Z,100853.25
2023-05-06T04:36:35.323Z,100854.91
2023-05-06T04:37:21.567Z,100853.84
2023-05-06T04:37:58.243Z,100856.28
2023-05-06T04:38:35.917Z,100858.19
2023-05-06T04:39:10.795Z,100853.84
2023-05-06T04:39:47.558Z,100852.22
2023-05-06T04:40:20.209Z,100859.47
2023-05-06T04:40:57.581Z,100857.59
2023-05-06T04:41:31.326Z,100852.22
2023-05-06T04:42:06.286Z,100862.97
2023-05-06T04:42:48.164Z,100853.53
2023-05-06T04:43:26.246Z,100862.88
2023-05-06T04:44:03.917Z,100861.50
2023-05-06T04:44:38.962Z,100861.50
2023-05-06T04:45:14.518Z,100857.72
2023-05-06T04:45:50.047Z,100843.22
2023-05-06T04:46:29.194Z,100859.13
2023-05-06T04:47:01.500Z,100866.97
2023-05-06T04:47:34.589Z,100869.66
2023-05-06T04:48:10.367Z,100868.84
2023-05-06T04:48:42.998Z,100866.97
2023-05-06T04:49:17.449Z,100862.63
2023-05-06T04:49:52.893Z,100864.00
2023-05-06T04:50:25.924Z,100871.25
2023-05-06T04:50:58.934Z,100867.53
2023-05-06T04:51:33.843Z,100869.97
2023-05-06T04:52:06.883Z,100866.25
2023-05-06T04:52:39.368Z,100867.03
2023-05-06T04:53:15.964Z,100869.72
2023-05-06T04:53:48.210Z,100869.72
2023-05-06T04:54:20.456Z,100863.56
2023-05-06T04:54:55.205Z,100865.97
2023-05-06T04:55:28.172Z,100864.34
2023-05-06T04:56:00.381Z,100856.53
2023-05-06T04:56:36.302Z,100865.16
2023-05-06T04:57:12.867Z,100861.91
2023-05-06T04:57:46.875Z,100864.59
2023-05-06T04:58:21.853Z,100859.78
2023-05-06T04:58:54.093Z,100867.63
2023-05-06T04:59:26.412Z,100863.06
2023-05-06T05:00:01.510Z,100867.41
2023-05-06T05:00:33.905Z,100861.19
2023-05-06T05:01:08.271Z,100859.31
2023-05-06T05:01:43.248Z,100859.56
2023-05-06T05:02:16.736Z,100865.97
2023-05-06T05:02:49.484Z,100867.63
2023-05-06T05:03:25.762Z,100862.25
2023-05-06T05:04:00.671Z,100865.66
2023-05-06T05:04:32.824Z,100863.56
2023-05-06T05:05:09.106Z,100861.81
2023-05-06T05:05:42.167Z,100864.59
2023-05-06T05:06:20.548Z,100866.69
2023-05-06T05:06:55.981Z,100862.97
2023-05-06T05:07:28.185Z,100864.84
2023-05-06T05:08:00.551Z,100867.28
2023-05-06T05:08:37.412Z,100859.22
2023-05-06T05:09:10.786Z,100856.53
2023-05-06T05:09:45.820Z,100857.91
2023-05-06T05:10:20.957Z,100861.44
2023-05-06T05:10:54.370Z,100864.13
2023-05-06T05:11:28.984Z,100863.06
2023-05-06T05:12:06.169Z,100861.19
2023-05-06T05:12:44.694Z,100865.75
2023-05-06T05:13:16.968Z,100864.69
2023-05-06T05:13:54.813Z,100859.88
2023-05-06T05:14:28.872Z,100866.31
2023-05-06T05:15:01.089Z,100859.88
2023-05-06T05:15:36.318Z,100862.34
2023-05-06T05:16:09.213Z,100860.47
2023-05-06T05:16:44.348Z,100870.19
2023-05-06T05:17:19.107Z,100871.78
2023-05-06T05:17:53.807Z,100867.50
2023-05-06T05:18:29.341Z,100861.84
2023-05-06T05:19:09.403Z,100866.41
2023-05-06T05:19:42.293Z,100865.34
2023-05-06T05:20:15.095Z,100852.97
2023-05-06T05:20:49.890Z,100864.03
2023-05-06T05:21:23.157Z,100868.63
2023-05-06T05:21:55.315Z,100870.03
2023-05-06T05:22:31.802Z,100866.50
2023-05-06T05:23:04.035Z,100864.41
2023-05-06T05:23:37.021Z,100865.22
2023-05-06T05:24:11.878Z,100860.63
2023-05-06T05:24:44.148Z,100856.06
2023-05-06T05:25:16.976Z,100865.56
2023-05-06T05:25:52.101Z,100869.88
2023-05-06T05:26:24.769Z,100865.06
2023-05-06T05:26:58.505Z,100865.06
2023-05-06T05:27:34.463Z,100865.38
2023-05-06T05:28:09.754Z,100868.66
2023-05-06T05:28:44.376Z,100862.69
2023-05-06T05:29:20.500Z,100864.09
2023-05-06T05:29:53.866Z,100861.63
2023-05-06T05:30:27.091Z,100867.84
2023-05-06T05:31:05.023Z,100871.91
2023-05-06T05:31:40.436Z,100867.59
2023-05-06T05:32:12.979Z,100867.34
2023-05-06T05:32:47.897Z,100872.25
2023-05-06T05:33:21.662Z,100867.66
2023-05-06T05:33:54.006Z,100869.06
2023-05-06T05:34:30.813Z,100866.38
2023-05-06T05:35:03.084Z,100865.06
2023-05-06T05:35:35.521Z,100867.53
2023-05-06T05:36:12.894Z,100866.47
2023-05-06T05:36:45.120Z,100866.22
2023-05-06T05:37:19.491Z,100866.22
2023-05-06T05:37:54.450Z,100865.97
2023-05-06T05:38:27.129Z,100865.75
2023-05-06T05:38:59.366Z,100860.09
2023-05-06T05:39:36.450Z,100871.69
2023-05-06T05:40:10.183Z,100855.53
2023-05-06T05:40:44.832Z,100858.22
2023-05-06T05:41:19.865Z,100857.41
2023-05-06T05:41:52.272Z,100863.88
2023-05-06T05:42:24.684Z,100863.88
2023-05-06T05:42:59.930Z,100866.56
2023-05-06T05:43:40.678Z,100858.72
2023-05-06T05:44:12.970Z,100860.59
2023-05-06T05:44:48.527Z,100856.84
2023-05-06T05:45:21.410Z,100862.78
2023-05-06T05:45:54.708Z,100863.38
2023-05-06T05:46:29.461Z,100863.97
2023-05-06T05:47:03.072Z,100863.97
2023-05-06T05:47:35.898Z,100863.69
2023-05-06T05:48:10.958Z,100861.81
2023-05-06T05:48:43.920Z,100868.84
2023-05-06T05:49:16.922Z,100865.94
2023-05-06T05:49:51.669Z,100871.03
2023-05-06T05:50:24.486Z,100874.31
2023-05-06T05:50:57.499Z,100865.97
2023-05-06T05:51:32.500Z,100871.13
2023-05-06T05:52:08.184Z,100862.47
2023-05-06T05:52:41.102Z,100857.09
2023-05-06T05:53:16.059Z,100868.44
2023-05-06T05:53:48.496Z,100871.13
2023-05-06T05:54:21.634Z,100871.13
2023-05-06T05:54:56.408Z,100865.50
2023-05-06T05:55:29.918Z,100869.03
2023-05-06T05:56:02.269Z,100869.03
2023-05-06T05:56:37.240Z,100870.63
2023-05-06T05:57:09.857Z,100880.59
2023-05-06T05:57:42.627Z,100868.75
2023-05-06T05:58:17.358Z,100870.41
2023-05-06T05:58:52.783Z,100869.34
2023-05-06T05:59:25.320Z,100869.81
2023-05-06T06:00:01.802Z,100867.69
2023-05-06T06:00:35.099Z,100868.53
2023-05-06T06:01:14.799Z,100872.28
2023-05-06T06:01:49.550Z,100869.34
2023-05-06T06:02:22.025Z,100868.53
2023-05-06T06:02:54.453Z,100875.53
2023-05-06T06:03:29.334Z,100872.84
2023-05-06T06:04:01.655Z,100874.72
2023-05-06T06:04:35.176Z,100864.78
2023-05-06T06:05:12.042Z,100869.34
2023-05-06T06:05:44.354Z,100873.69
2023-05-06T06:06:17.637Z,100883.13
2023-05-06T06:06:52.988Z,100875.88
2023-05-06T06:07:25.788Z,100876.69
2023-05-06T06:07:58.819Z,100887.44
2023-05-06T06:08:34.380Z,100878.31
2023-05-06T06:09:07.479Z,100887.78
2023-05-06T06:09:41.902Z,100879.47
2023-05-06T06:10:16.738Z,100878.13
2023-05-06T06:10:49.893Z,100880.59
2023-05-06T06:11:27.868Z,100881.41
2023-05-06T06:12:02.751Z,100874.41
2023-05-06T06:12:35.952Z,100878.97
2023-05-06T06:13:09.727Z,100877.31
2023-05-06T06:13:45.195Z,100887.84
2023-05-06T06:14:21.022Z,100887.34
2023-05-06T06:14:57.038Z,100878.97
2023-05-06T06:15:31.865Z,100884.34
2023-05-06T06:16:04.526Z,100878.13
2023-05-06T06:16:41.454Z,100885.97
2023-05-06T06:17:13.828Z,100873.88
2023-05-06T06:17:46.137Z,100883.38
2023-05-06T06:18:20.947Z,100883.94
2023-05-06T06:18:54.102Z,100870.47
2023-05-06T06:19:26.512Z,100863.72
2023-05-06T06:20:02.146Z,100883.94
2023-05-06T06:20:34.397Z,100884.97
2023-05-06T06:21:06.766Z,100881.22
2023-05-06T06:21:42.820Z,100887.44
2023-05-06T06:22:15.218Z,100884.97
2023-05-06T06:22:47.437Z,100887.94
2023-05-06T06:23:22.615Z,100881.75
2023-05-06T06:23:55.018Z,100883.59
2023-05-06T06:24:27.316Z,100892.50
2023-05-06T06:25:02.158Z,100878.78
2023-05-06T06:25:34.428Z,100885.81
2023-05-06T06:26:06.669Z,100884.75
2023-05-06T06:26:41.730Z,100878.84
2023-05-06T06:27:14.077Z,100876.97
2023-05-06T06:27:46.284Z,100881.91
2023-05-06T06:28:21.154Z,100879.75
2023-05-06T06:28:53.361Z,100880.56
2023-05-06T06:29:28.189Z,100888.41
2023-05-06T06:30:02.937Z,100885.47
2023-05-06T06:30:35.194Z,100888.72
2023-05-06T06:31:07.394Z,100883.91
2023-05-06T06:31:42.172Z,100883.66
2023-05-06T06:32:14.404Z,100883.97
2023-05-06T06:32:50.948Z,100882.69
2023-05-06T06:33:25.915Z,100873.50
2023-05-06T06:33:58.056Z,100878.66